sensor_id;sensor_type;location;lat;lon;timestamp;P1;durP1;ratioP1;P2;durP2;ratioP2
26864;SDS011;40618;51.166;10.322;2023-02-10T00:01:03;31.35;;;15.38;;
26864;SDS011;40618;51.166;10.322;2023-02-10T00:03:42;30.52;;;14.98;;
26864;SDS011;40618;51.166;10.322;2023-02-10T00:06:08;35.63;;;16.40;;
26864;SDS011;40618;51.166;10.322;2023-02-10T00:08:35;31.75;;;15.93;;
26864;SDS011;40618;51.166;10.322;2023-02-10T00:11:06;35.63;;;16.05;;
26864;SDS011;40618;51.166;10.322;2023-02-10T00:13:35;34.25;;;16.45;;
26864;SDS011;40618;51.166;10.322;2023-02-10T00:16:04;33.80;;;15.30;;
26864;SDS011;40618;51.166;10.322;2023-02-10T00:18:33;33.25;;;17.90;;
26864;SDS011;40618;51.166;10.322;2023-02-10T00:21:09;31.95;;;15.85;;
26864;SDS011;40618;51.166;10.322;2023-02-10T00:23:41;37.17;;;18.55;;
26864;SDS011;40618;51.166;10.322;2023-02-10T00:26:08;37.20;;;18.75;;
26864;SDS011;40618;51.166;10.322;2023-02-10T00:28:37;35.97;;;17.60;;
26864;SDS011;40618;51.166;10.322;2023-02-10T00:31:06;36.22;;;16.23;;
26864;SDS011;40618;51.166;10.322;2023-02-10T00:33:38;33.95;;;16.55;;
26864;SDS011;40618;51.166;10.322;2023-02-10T00:36:09;34.30;;;14.52;;
26864;SDS011;40618;51.166;10.322;2023-02-10T00:38:37;35.28;;;16.08;;
26864;SDS011;40618;51.166;10.322;2023-02-10T00:41:05;33.92;;;16.10;;
26864;SDS011;40618;51.166;10.322;2023-02-10T00:43:43;34.33;;;15.57;;
26864;SDS011;40618;51.166;10.322;2023-02-10T00:46:10;43.20;;;17.38;;
26864;SDS011;40618;51.166;10.322;2023-02-10T00:48:37;34.97;;;16.40;;
26864;SDS011;40618;51.166;10.322;2023-02-10T00:51:03;37.40;;;16.23;;
26864;SDS011;40618;51.166;10.322;2023-02-10T00:53:29;42.00;;;19.88;;
26864;SDS011;40618;51.166;10.322;2023-02-10T00:55:56;35.60;;;18.05;;
26864;SDS011;40618;51.166;10.322;2023-02-10T00:58:22;30.85;;;16.05;;
26864;SDS011;40618;51.166;10.322;2023-02-10T01:00:49;37.13;;;18.20;;
26864;SDS011;40618;51.166;10.322;2023-02-10T01:03:14;40.33;;;20.13;;
26864;SDS011;40618;51.166;10.322;2023-02-10T01:05:40;33.35;;;15.30;;
26864;SDS011;40618;51.166;10.322;2023-02-10T01:08:06;34.35;;;15.80;;
26864;SDS011;40618;51.166;10.322;2023-02-10T01:10:33;37.45;;;18.35;;
26864;SDS011;40618;51.166;10.322;2023-02-10T01:13:03;41.22;;;18.15;;
26864;SDS011;40618;51.166;10.322;2023-02-10T01:15:31;33.90;;;17.15;;
26864;SDS011;40618;51.166;10.322;2023-02-10T01:17:57;33.63;;;16.55;;
26864;SDS011;40618;51.166;10.322;2023-02-10T01:20:23;30.55;;;16.08;;
26864;SDS011;40618;51.166;10.322;2023-02-10T01:22:50;35.60;;;16.02;;
26864;SDS011;40618;51.166;10.322;2023-02-10T01:25:16;31.48;;;16.17;;
26864;SDS011;40618;51.166;10.322;2023-02-10T01:27:41;35.30;;;16.38;;
26864;SDS011;40618;51.166;10.322;2023-02-10T01:30:07;32.45;;;16.77;;
26864;SDS011;40618;51.166;10.322;2023-02-10T01:32:34;35.13;;;17.77;;
26864;SDS011;40618;51.166;10.322;2023-02-10T01:35:00;33.72;;;16.10;;
26864;SDS011;40618;51.166;10.322;2023-02-10T01:37:25;34.20;;;16.90;;
26864;SDS011;40618;51.166;10.322;2023-02-10T01:39:51;36.13;;;17.05;;
26864;SDS011;40618;51.166;10.322;2023-02-10T01:42:17;35.22;;;16.17;;
26864;SDS011;40618;51.166;10.322;2023-02-10T01:47:08;37.38;;;16.80;;
26864;SDS011;40618;51.166;10.322;2023-02-10T01:49:35;39.75;;;18.70;;
26864;SDS011;40618;51.166;10.322;2023-02-10T01:54:42;34.72;;;18.00;;
26864;SDS011;40618;51.166;10.322;2023-02-10T01:57:14;33.35;;;17.42;;
26864;SDS011;40618;51.166;10.322;2023-02-10T01:59:40;36.50;;;17.27;;
26864;SDS011;40618;51.166;10.322;2023-02-10T02:02:08;36.83;;;17.90;;
26864;SDS011;40618;51.166;10.322;2023-02-10T02:04:44;37.55;;;17.42;;
26864;SDS011;40618;51.166;10.322;2023-02-10T02:07:15;35.38;;;17.60;;
26864;SDS011;40618;51.166;10.322;2023-02-10T02:09:44;39.40;;;18.15;;
26864;SDS011;40618;51.166;10.322;2023-02-10T02:15:22;41.95;;;18.67;;
26864;SDS011;40618;51.166;10.322;2023-02-10T02:18:08;46.25;;;22.10;;
26864;SDS011;40618;51.166;10.322;2023-02-10T02:34:53;44.80;;;20.73;;
26864;SDS011;40618;51.166;10.322;2023-02-10T02:37:29;50.05;;;22.38;;
26864;SDS011;40618;51.166;10.322;2023-02-10T02:39:58;48.42;;;23.05;;
26864;SDS011;40618;51.166;10.322;2023-02-10T02:42:25;44.10;;;21.45;;
26864;SDS011;40618;51.166;10.322;2023-02-10T02:44:54;51.05;;;23.80;;
26864;SDS011;40618;51.166;10.322;2023-02-10T02:47:56;43.25;;;20.52;;
26864;SDS011;40618;51.166;10.322;2023-02-10T02:50:51;45.70;;;21.63;;
26864;SDS011;40618;51.166;10.322;2023-02-10T02:56:31;43.42;;;21.58;;
26864;SDS011;40618;51.166;10.322;2023-02-10T03:04:15;48.33;;;21.67;;
26864;SDS011;40618;51.166;10.322;2023-02-10T03:06:42;48.03;;;21.23;;
26864;SDS011;40618;51.166;10.322;2023-02-10T03:09:08;53.58;;;24.92;;
26864;SDS011;40618;51.166;10.322;2023-02-10T03:11:34;48.90;;;22.48;;
26864;SDS011;40618;51.166;10.322;2023-02-10T03:14:00;42.58;;;19.45;;
26864;SDS011;40618;51.166;10.322;2023-02-10T03:16:26;40.25;;;20.42;;
26864;SDS011;40618;51.166;10.322;2023-02-10T03:18:51;40.30;;;20.80;;
26864;SDS011;40618;51.166;10.322;2023-02-10T03:21:17;37.88;;;19.13;;
26864;SDS011;40618;51.166;10.322;2023-02-10T03:23:43;44.03;;;19.52;;
26864;SDS011;40618;51.166;10.322;2023-02-10T03:26:09;41.53;;;20.40;;
26864;SDS011;40618;51.166;10.322;2023-02-10T03:28:34;44.03;;;21.23;;
26864;SDS011;40618;51.166;10.322;2023-02-10T03:31:04;46.42;;;20.02;;
26864;SDS011;40618;51.166;10.322;2023-02-10T03:33:32;40.67;;;20.35;;
26864;SDS011;40618;51.166;10.322;2023-02-10T03:35:58;44.75;;;21.52;;
26864;SDS011;40618;51.166;10.322;2023-02-10T03:38:25;45.63;;;21.90;;
26864;SDS011;40618;51.166;10.322;2023-02-10T03:40:52;39.35;;;20.13;;
26864;SDS011;40618;51.166;10.322;2023-02-10T03:43:18;48.05;;;23.05;;
26864;SDS011;40618;51.166;10.322;2023-02-10T03:45:45;47.67;;;20.45;;
26864;SDS011;40618;51.166;10.322;2023-02-10T03:48:11;44.60;;;21.85;;
26864;SDS011;40618;51.166;10.322;2023-02-10T03:50:38;43.30;;;21.42;;
26864;SDS011;40618;51.166;10.322;2023-02-10T03:53:04;42.40;;;22.45;;
26864;SDS011;40618;51.166;10.322;2023-02-10T03:55:30;43.50;;;21.52;;
26864;SDS011;40618;51.166;10.322;2023-02-10T03:57:56;47.25;;;22.20;;
26864;SDS011;40618;51.166;10.322;2023-02-10T04:00:22;42.55;;;20.45;;
26864;SDS011;40618;51.166;10.322;2023-02-10T04:02:48;39.60;;;20.48;;
26864;SDS011;40618;51.166;10.322;2023-02-10T04:05:14;42.38;;;19.73;;
26864;SDS011;40618;51.166;10.322;2023-02-10T04:07:39;39.75;;;19.55;;
26864;SDS011;40618;51.166;10.322;2023-02-10T04:10:06;43.50;;;20.73;;
26864;SDS011;40618;51.166;10.322;2023-02-10T04:12:32;44.40;;;21.23;;
26864;SDS011;40618;51.166;10.322;2023-02-10T04:14:58;42.83;;;20.60;;
26864;SDS011;40618;51.166;10.322;2023-02-10T04:17:24;45.30;;;21.52;;
26864;SDS011;40618;51.166;10.322;2023-02-10T04:19:49;55.33;;;26.55;;
26864;SDS011;40618;51.166;10.322;2023-02-10T04:22:15;45.95;;;23.65;;
26864;SDS011;40618;51.166;10.322;2023-02-10T04:24:41;48.05;;;23.45;;
26864;SDS011;40618;51.166;10.322;2023-02-10T04:27:07;45.90;;;24.20;;
26864;SDS011;40618;51.166;10.322;2023-02-10T04:29:33;42.00;;;22.98;;
26864;SDS011;40618;51.166;10.322;2023-02-10T04:32:03;45.03;;;23.85;;
26864;SDS011;40618;51.166;10.322;2023-02-10T04:34:29;42.20;;;21.92;;
26864;SDS011;40618;51.166;10.322;2023-02-10T04:36:55;47.00;;;23.00;;
26864;SDS011;40618;51.166;10.322;2023-02-10T04:39:21;46.33;;;21.45;;
26864;SDS011;40618;51.166;10.322;2023-02-10T04:41:46;42.35;;;21.88;;
26864;SDS011;40618;51.166;10.322;2023-02-10T04:44:12;44.55;;;21.70;;
26864;SDS011;40618;51.166;10.322;2023-02-10T04:46:38;40.42;;;20.67;;
26864;SDS011;40618;51.166;10.322;2023-02-10T04:49:03;50.88;;;21.88;;
26864;SDS011;40618;51.166;10.322;2023-02-10T04:51:29;46.90;;;23.50;;
26864;SDS011;40618;51.166;10.322;2023-02-10T04:53:55;38.80;;;20.90;;
26864;SDS011;40618;51.166;10.322;2023-02-10T04:56:20;46.47;;;22.52;;
26864;SDS011;40618;51.166;10.322;2023-02-10T04:58:46;40.72;;;20.80;;
26864;SDS011;40618;51.166;10.322;2023-02-10T05:01:12;43.00;;;21.33;;
26864;SDS011;40618;51.166;10.322;2023-02-10T05:03:37;41.75;;;21.33;;
26864;SDS011;40618;51.166;10.322;2023-02-10T05:09:44;39.83;;;22.08;;
26864;SDS011;40618;51.166;10.322;2023-02-10T05:12:09;36.17;;;21.35;;
26864;SDS011;40618;51.166;10.322;2023-02-10T05:14:35;48.65;;;23.40;;
26864;SDS011;40618;51.166;10.322;2023-02-10T05:17:01;46.92;;;24.15;;
26864;SDS011;40618;51.166;10.322;2023-02-10T05:19:26;49.95;;;24.17;;
26864;SDS011;40618;51.166;10.322;2023-02-10T05:21:52;41.78;;;22.42;;
26864;SDS011;40618;51.166;10.322;2023-02-10T05:24:18;44.40;;;22.45;;
26864;SDS011;40618;51.166;10.322;2023-02-10T05:26:43;44.10;;;22.60;;
26864;SDS011;40618;51.166;10.322;2023-02-10T05:29:09;47.60;;;23.60;;
26864;SDS011;40618;51.166;10.322;2023-02-10T05:31:34;51.03;;;23.92;;
26864;SDS011;40618;51.166;10.322;2023-02-10T05:34:00;48.22;;;23.27;;
26864;SDS011;40618;51.166;10.322;2023-02-10T05:36:26;47.83;;;22.48;;
26864;SDS011;40618;51.166;10.322;2023-02-10T05:38:51;49.63;;;23.30;;
26864;SDS011;40618;51.166;10.322;2023-02-10T05:41:36;49.22;;;22.58;;
26864;SDS011;40618;51.166;10.322;2023-02-10T05:44:01;52.10;;;23.10;;
26864;SDS011;40618;51.166;10.322;2023-02-10T05:46:27;45.65;;;22.42;;
26864;SDS011;40618;51.166;10.322;2023-02-10T05:48:53;48.45;;;23.83;;
26864;SDS011;40618;51.166;10.322;2023-02-10T05:51:19;43.05;;;22.52;;
26864;SDS011;40618;51.166;10.322;2023-02-10T05:53:44;46.00;;;24.27;;
26864;SDS011;40618;51.166;10.322;2023-02-10T05:56:10;55.20;;;26.75;;
26864;SDS011;40618;51.166;10.322;2023-02-10T05:58:36;51.10;;;25.88;;
26864;SDS011;40618;51.166;10.322;2023-02-10T06:01:05;43.05;;;21.88;;
26864;SDS011;40618;51.166;10.322;2023-02-10T06:03:32;49.40;;;22.92;;
26864;SDS011;40618;51.166;10.322;2023-02-10T06:05:59;46.13;;;23.23;;
26864;SDS011;40618;51.166;10.322;2023-02-10T06:08:24;45.55;;;22.80;;
26864;SDS011;40618;51.166;10.322;2023-02-10T06:10:51;51.15;;;25.30;;
26864;SDS011;40618;51.166;10.322;2023-02-10T06:13:17;42.63;;;21.70;;
26864;SDS011;40618;51.166;10.322;2023-02-10T06:15:43;43.85;;;22.23;;
26864;SDS011;40618;51.166;10.322;2023-02-10T06:18:09;47.80;;;23.02;;
26864;SDS011;40618;51.166;10.322;2023-02-10T06:20:35;49.90;;;22.27;;
26864;SDS011;40618;51.166;10.322;2023-02-10T06:23:00;48.22;;;22.52;;
26864;SDS011;40618;51.166;10.322;2023-02-10T06:25:26;42.67;;;22.55;;
26864;SDS011;40618;51.166;10.322;2023-02-10T06:27:52;48.15;;;23.45;;
26864;SDS011;40618;51.166;10.322;2023-02-10T06:30:18;46.03;;;21.60;;
26864;SDS011;40618;51.166;10.322;2023-02-10T06:32:44;44.15;;;22.10;;
26864;SDS011;40618;51.166;10.322;2023-02-10T06:35:10;43.92;;;22.42;;
26864;SDS011;40618;51.166;10.322;2023-02-10T06:37:36;44.75;;;22.00;;
26864;SDS011;40618;51.166;10.322;2023-02-10T06:40:04;50.20;;;23.30;;
26864;SDS011;40618;51.166;10.322;2023-02-10T06:42:31;53.08;;;24.40;;
26864;SDS011;40618;51.166;10.322;2023-02-10T06:44:58;46.35;;;23.98;;
26864;SDS011;40618;51.166;10.322;2023-02-10T06:47:23;49.17;;;23.48;;
26864;SDS011;40618;51.166;10.322;2023-02-10T06:49:49;51.45;;;24.45;;
26864;SDS011;40618;51.166;10.322;2023-02-10T06:52:15;50.88;;;24.25;;
26864;SDS011;40618;51.166;10.322;2023-02-10T06:54:40;50.33;;;24.25;;
26864;SDS011;40618;51.166;10.322;2023-02-10T06:57:06;48.03;;;24.00;;
26864;SDS011;40618;51.166;10.322;2023-02-10T06:59:33;53.03;;;22.73;;
26864;SDS011;40618;51.166;10.322;2023-02-10T07:01:59;50.17;;;23.38;;
26864;SDS011;40618;51.166;10.322;2023-02-10T07:04:30;49.22;;;23.65;;
26864;SDS011;40618;51.166;10.322;2023-02-10T07:06:57;45.03;;;23.10;;
26864;SDS011;40618;51.166;10.322;2023-02-10T07:09:23;45.40;;;24.00;;
26864;SDS011;40618;51.166;10.322;2023-02-10T07:11:49;45.53;;;23.33;;
26864;SDS011;40618;51.166;10.322;2023-02-10T07:14:15;45.67;;;23.80;;
26864;SDS011;40618;51.166;10.322;2023-02-10T07:16:41;51.80;;;25.98;;
26864;SDS011;40618;51.166;10.322;2023-02-10T07:19:07;49.03;;;24.17;;
26864;SDS011;40618;51.166;10.322;2023-02-10T07:21:33;52.40;;;24.67;;
26864;SDS011;40618;51.166;10.322;2023-02-10T07:23:59;51.08;;;25.33;;
26864;SDS011;40618;51.166;10.322;2023-02-10T07:26:27;51.97;;;25.27;;
26864;SDS011;40618;51.166;10.322;2023-02-10T07:28:52;47.05;;;23.85;;
26864;SDS011;40618;51.166;10.322;2023-02-10T07:31:18;47.33;;;23.77;;
26864;SDS011;40618;51.166;10.322;2023-02-10T07:33:44;49.33;;;23.92;;
26864;SDS011;40618;51.166;10.322;2023-02-10T07:36:10;48.20;;;23.67;;
26864;SDS011;40618;51.166;10.322;2023-02-10T07:38:36;50.13;;;25.13;;
26864;SDS011;40618;51.166;10.322;2023-02-10T07:41:02;52.40;;;25.38;;
26864;SDS011;40618;51.166;10.322;2023-02-10T07:43:30;51.88;;;25.90;;
26864;SDS011;40618;51.166;10.322;2023-02-10T07:45:56;50.90;;;25.83;;
26864;SDS011;40618;51.166;10.322;2023-02-10T07:48:22;50.40;;;25.02;;
26864;SDS011;40618;51.166;10.322;2023-02-10T07:50:48;48.67;;;23.85;;
26864;SDS011;40618;51.166;10.322;2023-02-10T07:53:16;54.45;;;25.52;;
26864;SDS011;40618;51.166;10.322;2023-02-10T07:55:43;50.22;;;23.95;;
26864;SDS011;40618;51.166;10.322;2023-02-10T07:58:09;48.78;;;23.65;;
26864;SDS011;40618;51.166;10.322;2023-02-10T08:00:35;53.05;;;26.45;;
26864;SDS011;40618;51.166;10.322;2023-02-10T08:03:01;47.97;;;24.35;;
26864;SDS011;40618;51.166;10.322;2023-02-10T08:05:27;50.58;;;27.98;;
26864;SDS011;40618;51.166;10.322;2023-02-10T08:07:53;52.05;;;25.50;;
26864;SDS011;40618;51.166;10.322;2023-02-10T08:10:20;54.38;;;27.83;;
26864;SDS011;40618;51.166;10.322;2023-02-10T08:12:46;57.95;;;27.42;;
26864;SDS011;40618;51.166;10.322;2023-02-10T08:15:12;53.03;;;26.90;;
26864;SDS011;40618;51.166;10.322;2023-02-10T08:17:38;50.33;;;26.10;;
26864;SDS011;40618;51.166;10.322;2023-02-10T08:20:07;49.05;;;25.55;;
26864;SDS011;40618;51.166;10.322;2023-02-10T08:22:33;51.85;;;27.50;;
26864;SDS011;40618;51.166;10.322;2023-02-10T08:24:59;49.75;;;25.27;;
26864;SDS011;40618;51.166;10.322;2023-02-10T08:27:25;50.92;;;24.75;;
26864;SDS011;40618;51.166;10.322;2023-02-10T08:29:53;50.55;;;25.45;;
26864;SDS011;40618;51.166;10.322;2023-02-10T08:32:20;49.38;;;24.92;;
26864;SDS011;40618;51.166;10.322;2023-02-10T08:34:49;58.53;;;27.15;;
26864;SDS011;40618;51.166;10.322;2023-02-10T08:37:16;54.47;;;26.13;;
26864;SDS011;40618;51.166;10.322;2023-02-10T08:39:43;49.60;;;25.13;;
26864;SDS011;40618;51.166;10.322;2023-02-10T08:42:10;55.13;;;28.50;;
26864;SDS011;40618;51.166;10.322;2023-02-10T08:44:36;52.00;;;26.70;;
26864;SDS011;40618;51.166;10.322;2023-02-10T08:47:02;56.38;;;27.05;;
26864;SDS011;40618;51.166;10.322;2023-02-10T08:49:28;55.00;;;26.33;;
26864;SDS011;40618;51.166;10.322;2023-02-10T08:51:55;57.17;;;28.27;;
26864;SDS011;40618;51.166;10.322;2023-02-10T08:54:21;55.75;;;27.80;;
26864;SDS011;40618;51.166;10.322;2023-02-10T08:56:47;50.95;;;25.63;;
26864;SDS011;40618;51.166;10.322;2023-02-10T08:59:17;50.90;;;25.30;;
26864;SDS011;40618;51.166;10.322;2023-02-10T09:01:43;54.85;;;26.55;;
26864;SDS011;40618;51.166;10.322;2023-02-10T09:04:09;51.42;;;26.55;;
26864;SDS011;40618;51.166;10.322;2023-02-10T09:06:37;57.80;;;30.83;;
26864;SDS011;40618;51.166;10.322;2023-02-10T09:09:07;55.45;;;27.92;;
26864;SDS011;40618;51.166;10.322;2023-02-10T09:11:35;59.25;;;29.15;;
26864;SDS011;40618;51.166;10.322;2023-02-10T09:14:04;55.92;;;26.50;;
26864;SDS011;40618;51.166;10.322;2023-02-10T09:16:30;57.17;;;28.35;;
26864;SDS011;40618;51.166;10.322;2023-02-10T09:18:56;59.13;;;27.40;;
26864;SDS011;40618;51.166;10.322;2023-02-10T09:21:22;62.70;;;30.00;;
26864;SDS011;40618;51.166;10.322;2023-02-10T09:23:50;56.05;;;27.27;;
26864;SDS011;40618;51.166;10.322;2023-02-10T09:26:16;58.63;;;28.65;;
26864;SDS011;40618;51.166;10.322;2023-02-10T09:28:42;59.53;;;29.25;;
26864;SDS011;40618;51.166;10.322;2023-02-10T09:31:08;58.88;;;28.65;;
26864;SDS011;40618;51.166;10.322;2023-02-10T09:33:36;51.63;;;26.88;;
26864;SDS011;40618;51.166;10.322;2023-02-10T09:36:05;54.05;;;26.90;;
26864;SDS011;40618;51.166;10.322;2023-02-10T09:38:32;57.55;;;27.95;;
26864;SDS011;40618;51.166;10.322;2023-02-10T09:55:39;54.17;;;26.48;;
26864;SDS011;40618;51.166;10.322;2023-02-10T10:06:22;63.33;;;29.02;;
26864;SDS011;40618;51.166;10.322;2023-02-10T10:11:53;67.95;;;30.58;;
26864;SDS011;40618;51.166;10.322;2023-02-10T10:14:23;59.40;;;28.65;;
26864;SDS011;40618;51.166;10.322;2023-02-10T10:26:35;65.85;;;31.77;;
26864;SDS011;40618;51.166;10.322;2023-02-10T10:32:35;55.47;;;29.10;;
26864;SDS011;40618;51.166;10.322;2023-02-10T10:35:14;62.67;;;29.30;;
26864;SDS011;40618;51.166;10.322;2023-02-10T10:37:54;73.72;;;31.55;;
26864;SDS011;40618;51.166;10.322;2023-02-10T10:40:21;63.63;;;30.25;;
26864;SDS011;40618;51.166;10.322;2023-02-10T10:42:53;61.95;;;29.35;;
26864;SDS011;40618;51.166;10.322;2023-02-10T10:45:26;61.85;;;27.60;;
26864;SDS011;40618;51.166;10.322;2023-02-10T10:48:15;63.60;;;32.15;;
26864;SDS011;40618;51.166;10.322;2023-02-10T10:50:51;62.53;;;29.42;;
26864;SDS011;40618;51.166;10.322;2023-02-10T10:56:19;61.65;;;27.65;;
26864;SDS011;40618;51.166;10.322;2023-02-10T11:01:45;53.03;;;26.43;;
26864;SDS011;40618;51.166;10.322;2023-02-10T11:04:18;58.58;;;28.58;;
26864;SDS011;40618;51.166;10.322;2023-02-10T11:06:48;64.50;;;30.40;;
26864;SDS011;40618;51.166;10.322;2023-02-10T11:11:49;59.75;;;28.52;;
26864;SDS011;40618;51.166;10.322;2023-02-10T11:14:17;61.25;;;29.15;;
26864;SDS011;40618;51.166;10.322;2023-02-10T11:16:51;57.97;;;27.83;;
26864;SDS011;40618;51.166;10.322;2023-02-10T11:19:23;65.28;;;30.27;;
26864;SDS011;40618;51.166;10.322;2023-02-10T11:21:52;55.15;;;27.17;;
26864;SDS011;40618;51.166;10.322;2023-02-10T11:27:06;51.42;;;26.58;;
26864;SDS011;40618;51.166;10.322;2023-02-10T11:29:46;56.85;;;27.05;;
26864;SDS011;40618;51.166;10.322;2023-02-10T11:32:19;59.60;;;26.98;;
26864;SDS011;40618;51.166;10.322;2023-02-10T11:34:50;55.53;;;26.33;;
26864;SDS011;40618;51.166;10.322;2023-02-10T11:37:26;58.42;;;27.90;;
26864;SDS011;40618;51.166;10.322;2023-02-10T11:39:57;56.40;;;28.15;;
26864;SDS011;40618;51.166;10.322;2023-02-10T11:42:29;55.20;;;26.95;;
26864;SDS011;40618;51.166;10.322;2023-02-10T11:45:03;58.17;;;27.25;;
26864;SDS011;40618;51.166;10.322;2023-02-10T11:47:45;55.03;;;27.75;;
26864;SDS011;40618;51.166;10.322;2023-02-10T11:50:22;53.15;;;26.00;;
26864;SDS011;40618;51.166;10.322;2023-02-10T11:55:17;47.78;;;23.70;;
26864;SDS011;40618;51.166;10.322;2023-02-10T11:57:49;41.70;;;18.13;;
26864;SDS011;40618;51.166;10.322;2023-02-10T12:01:08;48.78;;;23.50;;
26864;SDS011;40618;51.166;10.322;2023-02-10T12:03:46;55.25;;;28.52;;
26864;SDS011;40618;51.166;10.322;2023-02-10T12:06:32;63.97;;;32.88;;
26864;SDS011;40618;51.166;10.322;2023-02-10T12:09:37;45.88;;;24.70;;
26864;SDS011;40618;51.166;10.322;2023-02-10T12:24:09;55.63;;;25.92;;
26864;SDS011;40618;51.166;10.322;2023-02-10T12:26:54;53.05;;;25.73;;
26864;SDS011;40618;51.166;10.322;2023-02-10T12:58:41;52.47;;;24.42;;
26864;SDS011;40618;51.166;10.322;2023-02-10T13:07:04;48.63;;;24.50;;
26864;SDS011;40618;51.166;10.322;2023-02-10T13:10:26;49.28;;;24.08;;
26864;SDS011;40618;51.166;10.322;2023-02-10T13:12:41;53.72;;;23.48;;
26864;SDS011;40618;51.166;10.322;2023-02-10T13:17:48;42.45;;;21.35;;
26864;SDS011;40618;51.166;10.322;2023-02-10T13:20:22;54.38;;;26.05;;
26864;SDS011;40618;51.166;10.322;2023-02-10T13:26:03;51.85;;;24.58;;
26864;SDS011;40618;51.166;10.322;2023-02-10T13:34:28;48.47;;;24.88;;
26864;SDS011;40618;51.166;10.322;2023-02-10T13:37:08;52.67;;;25.30;;
26864;SDS011;40618;51.166;10.322;2023-02-10T13:40:03;50.83;;;25.27;;
26864;SDS011;40618;51.166;10.322;2023-02-10T13:45:29;52.10;;;25.30;;
26864;SDS011;40618;51.166;10.322;2023-02-10T13:48:17;55.15;;;27.65;;
26864;SDS011;40618;51.166;10.322;2023-02-10T13:50:54;53.95;;;26.27;;
26864;SDS011;40618;51.166;10.322;2023-02-10T14:01:32;50.92;;;27.25;;
26864;SDS011;40618;51.166;10.322;2023-02-10T14:06:43;59.08;;;27.50;;
26864;SDS011;40618;51.166;10.322;2023-02-10T14:09:31;58.25;;;28.77;;
26864;SDS011;40618;51.166;10.322;2023-02-10T14:12:03;50.40;;;26.45;;
26864;SDS011;40618;51.166;10.322;2023-02-10T14:14:49;50.05;;;25.48;;
26864;SDS011;40618;51.166;10.322;2023-02-10T14:19:55;50.67;;;24.85;;
26864;SDS011;40618;51.166;10.322;2023-02-10T14:24:57;50.72;;;26.98;;
26864;SDS011;40618;51.166;10.322;2023-02-10T14:27:29;51.97;;;27.52;;
26864;SDS011;40618;51.166;10.322;2023-02-10T14:29:58;52.65;;;25.70;;
26864;SDS011;40618;51.166;10.322;2023-02-10T14:32:39;52.23;;;28.07;;
26864;SDS011;40618;51.166;10.322;2023-02-10T14:35:17;51.30;;;26.60;;
26864;SDS011;40618;51.166;10.322;2023-02-10T14:37:49;50.28;;;25.38;;
26864;SDS011;40618;51.166;10.322;2023-02-10T14:40:21;51.95;;;26.52;;
26864;SDS011;40618;51.166;10.322;2023-02-10T14:42:49;53.92;;;27.13;;
26864;SDS011;40618;51.166;10.322;2023-02-10T14:45:19;51.13;;;26.08;;
26864;SDS011;40618;51.166;10.322;2023-02-10T14:47:52;45.28;;;25.10;;
26864;SDS011;40618;51.166;10.322;2023-02-10T14:50:26;43.97;;;25.45;;
26864;SDS011;40618;51.166;10.322;2023-02-10T14:53:00;47.65;;;24.90;;
26864;SDS011;40618;51.166;10.322;2023-02-10T14:58:02;50.72;;;24.95;;
26864;SDS011;40618;51.166;10.322;2023-02-10T15:00:37;45.97;;;22.38;;
26864;SDS011;40618;51.166;10.322;2023-02-10T15:03:09;48.80;;;23.23;;
26864;SDS011;40618;51.166;10.322;2023-02-10T15:05:39;42.58;;;23.35;;
26864;SDS011;40618;51.166;10.322;2023-02-10T15:08:19;49.92;;;25.13;;
26864;SDS011;40618;51.166;10.322;2023-02-10T15:10:57;46.53;;;23.95;;
26864;SDS011;40618;51.166;10.322;2023-02-10T15:13:26;43.33;;;21.70;;
26864;SDS011;40618;51.166;10.322;2023-02-10T15:16:03;43.83;;;22.00;;
26864;SDS011;40618;51.166;10.322;2023-02-10T15:18:33;42.15;;;22.05;;
26864;SDS011;40618;51.166;10.322;2023-02-10T15:21:21;44.92;;;22.30;;
26864;SDS011;40618;51.166;10.322;2023-02-10T15:23:59;47.00;;;22.65;;
26864;SDS011;40618;51.166;10.322;2023-02-10T15:26:26;42.33;;;21.65;;
26864;SDS011;40618;51.166;10.322;2023-02-10T15:31:34;41.45;;;21.60;;
26864;SDS011;40618;51.166;10.322;2023-02-10T15:34:01;40.22;;;21.42;;
26864;SDS011;40618;51.166;10.322;2023-02-10T15:36:49;40.97;;;20.70;;
26864;SDS011;40618;51.166;10.322;2023-02-10T15:41:59;44.67;;;23.67;;
26864;SDS011;40618;51.166;10.322;2023-02-10T15:44:31;49.28;;;25.38;;
26864;SDS011;40618;51.166;10.322;2023-02-10T15:49:42;55.85;;;27.10;;
26864;SDS011;40618;51.166;10.322;2023-02-10T15:52:18;45.58;;;25.23;;
26864;SDS011;40618;51.166;10.322;2023-02-10T15:54:46;50.60;;;24.77;;
26864;SDS011;40618;51.166;10.322;2023-02-10T15:57:15;42.95;;;21.88;;
26864;SDS011;40618;51.166;10.322;2023-02-10T15:59:41;42.00;;;20.52;;
26864;SDS011;40618;51.166;10.322;2023-02-10T16:02:10;43.45;;;20.13;;
26864;SDS011;40618;51.166;10.322;2023-02-10T16:04:38;46.15;;;22.20;;
26864;SDS011;40618;51.166;10.322;2023-02-10T16:07:05;46.45;;;23.23;;
26864;SDS011;40618;51.166;10.322;2023-02-10T16:09:31;38.70;;;20.10;;
26864;SDS011;40618;51.166;10.322;2023-02-10T16:11:59;44.03;;;21.75;;
26864;SDS011;40618;51.166;10.322;2023-02-10T16:14:26;38.97;;;19.67;;
26864;SDS011;40618;51.166;10.322;2023-02-10T16:16:54;40.30;;;21.73;;
26864;SDS011;40618;51.166;10.322;2023-02-10T16:19:28;38.65;;;18.83;;
26864;SDS011;40618;51.166;10.322;2023-02-10T16:21:57;39.92;;;21.33;;
26864;SDS011;40618;51.166;10.322;2023-02-10T16:24:25;45.00;;;22.50;;
26864;SDS011;40618;51.166;10.322;2023-02-10T16:26:55;45.70;;;22.55;;
26864;SDS011;40618;51.166;10.322;2023-02-10T16:29:26;43.78;;;22.42;;
26864;SDS011;40618;51.166;10.322;2023-02-10T16:31:56;34.53;;;18.52;;
26864;SDS011;40618;51.166;10.322;2023-02-10T16:34:24;41.35;;;19.38;;
26864;SDS011;40618;51.166;10.322;2023-02-10T16:36:53;37.92;;;19.13;;
26864;SDS011;40618;51.166;10.322;2023-02-10T16:39:22;37.67;;;19.25;;
26864;SDS011;40618;51.166;10.322;2023-02-10T16:41:50;36.35;;;19.13;;
26864;SDS011;40618;51.166;10.322;2023-02-10T16:44:19;35.83;;;19.42;;
26864;SDS011;40618;51.166;10.322;2023-02-10T16:46:45;37.28;;;18.13;;
26864;SDS011;40618;51.166;10.322;2023-02-10T16:49:13;39.35;;;18.23;;
26864;SDS011;40618;51.166;10.322;2023-02-10T16:51:46;41.33;;;19.17;;
26864;SDS011;40618;51.166;10.322;2023-02-10T16:54:12;38.22;;;19.10;;
26864;SDS011;40618;51.166;10.322;2023-02-10T16:56:39;48.25;;;21.60;;
26864;SDS011;40618;51.166;10.322;2023-02-10T16:59:09;44.33;;;21.55;;
26864;SDS011;40618;51.166;10.322;2023-02-10T17:01:43;43.90;;;21.98;;
26864;SDS011;40618;51.166;10.322;2023-02-10T17:04:11;43.35;;;22.38;;
26864;SDS011;40618;51.166;10.322;2023-02-10T17:06:44;45.53;;;20.63;;
26864;SDS011;40618;51.166;10.322;2023-02-10T17:09:17;45.85;;;21.77;;
26864;SDS011;40618;51.166;10.322;2023-02-10T17:11:47;52.50;;;25.30;;
26864;SDS011;40618;51.166;10.322;2023-02-10T17:14:15;57.08;;;27.23;;
26864;SDS011;40618;51.166;10.322;2023-02-10T17:16:46;50.88;;;25.42;;